createdAt,value
2018-05-18T05:01:56.331Z,48.90
2018-05-18T05:04:30.365Z,51.00
2018-05-18T05:07:03.655Z,46.20
2018-05-18T05:09:36.924Z,51.90
2018-05-18T05:12:10.968Z,46.10
2018-05-18T05:14:44.237Z,45.27
2018-05-18T05:17:18.276Z,52.63
2018-05-18T05:19:51.548Z,49.60
2018-05-18T05:22:25.605Z,49.63
2018-05-18T05:24:58.851Z,52.20
2018-05-18T05:27:32.897Z,50.13
2018-05-18T05:30:06.164Z,46.33
2018-05-18T05:32:40.203Z,50.37
2018-05-18T05:35:13.464Z,45.17
2018-05-18T05:37:47.516Z,43.03
2018-05-18T05:40:20.777Z,49.90
2018-05-18T05:42:54.823Z,49.53
2018-05-18T05:45:28.084Z,46.50
2018-05-18T05:48:01.364Z,47.17
2018-05-18T05:50:35.665Z,46.00
2018-05-18T05:53:09.160Z,47.83
2018-05-18T05:55:42.708Z,39.53
2018-05-18T05:58:16.175Z,46.33
2018-05-18T06:00:50.325Z,47.73
2018-05-18T06:03:23.613Z,47.97
2018-05-18T06:05:56.876Z,49.70
2018-05-18T06:08:30.926Z,46.73
2018-05-18T06:11:04.186Z,48.20
2018-05-18T06:13:38.240Z,47.43
2018-05-18T06:16:11.541Z,47.80
2018-05-18T06:18:44.798Z,42.50
2018-05-18T06:21:18.083Z,46.03
2018-05-18T06:23:51.343Z,45.80
2018-05-18T06:26:24.621Z,50.93
2018-05-18T06:28:57.884Z,42.13
2018-05-18T06:31:31.164Z,45.60
2018-05-18T06:34:05.200Z,42.33
2018-05-18T06:36:38.481Z,48.80
2018-05-18T06:39:11.744Z,43.43
2018-05-18T06:41:45.080Z,41.53
2018-05-18T06:44:18.349Z,47.43
2018-05-18T06:46:52.407Z,41.83
2018-05-18T06:49:25.652Z,40.00
2018-05-18T06:51:59.700Z,41.77
2018-05-18T06:54:32.965Z,38.77
2018-05-18T06:57:06.247Z,40.00
2018-05-18T06:59:40.282Z,35.30
2018-05-18T07:02:13.560Z,46.77
2018-05-18T07:04:47.584Z,34.73
2018-05-18T07:07:20.893Z,39.60
2018-05-18T07:09:54.155Z,38.87
2018-05-18T07:12:27.436Z,42.53
2018-05-18T07:15:00.699Z,32.33
2018-05-18T07:17:33.970Z,37.73
2018-05-18T07:20:07.258Z,33.40
2018-05-18T07:22:40.540Z,33.40
2018-05-18T07:25:15.711Z,29.07
2018-05-18T07:27:48.987Z,32.33
2018-05-18T07:30:22.260Z,31.03
2018-05-18T07:32:56.303Z,41.53
2018-05-18T07:35:29.559Z,38.97
2018-05-18T07:38:02.849Z,32.00
2018-05-18T07:40:36.104Z,35.80
2018-05-18T07:43:09.389Z,30.67
2018-05-18T07:45:42.650Z,31.17
2018-05-18T07:48:16.699Z,30.60
2018-05-18T07:50:49.951Z,33.60
2018-05-18T07:53:23.268Z,33.80
2018-05-18T07:55:56.521Z,31.40
2018-05-18T07:58:30.589Z,26.87
2018-05-18T08:01:03.856Z,29.57
2018-05-18T08:03:37.253Z,31.67
2018-05-18T08:06:10.503Z,33.33
2018-05-18T08:08:43.800Z,25.77
2018-05-18T08:11:19.775Z,26.20
2018-05-18T08:13:53.055Z,30.07
2018-05-18T08:16:26.316Z,33.50
2018-05-18T08:18:59.601Z,31.13
2018-05-18T08:21:32.955Z,29.97
2018-05-18T08:24:06.920Z,23.97
2018-05-18T08:26:40.180Z,31.43
2018-05-18T08:29:31.335Z,29.90
2018-05-18T08:32:04.607Z,32.13
2018-05-18T08:34:37.900Z,35.43
2018-05-18T08:37:11.171Z,29.30
2018-05-18T08:39:45.212Z,25.97
2018-05-18T08:42:18.476Z,30.37
2018-05-18T08:44:52.605Z,27.03
2018-05-18T08:47:25.788Z,26.63
2018-05-18T08:49:59.921Z,33.57
2018-05-18T08:52:33.104Z,28.23
2018-05-18T08:55:06.391Z,22.63
2018-05-18T08:57:39.663Z,28.27
2018-05-18T09:00:13.708Z,27.23
2018-05-18T09:02:46.966Z,33.90
2018-05-18T09:05:21.026Z,23.30
2018-05-18T09:07:54.286Z,22.93
2018-05-18T09:10:28.333Z,27.03
2018-05-18T09:13:01.592Z,25.57
2018-05-18T09:15:34.887Z,27.00
2018-05-18T09:18:08.148Z,20.03
2018-05-18T09:20:41.431Z,20.47
2018-05-18T09:23:14.707Z,17.47
2018-05-18T09:25:47.980Z,18.40
2018-05-18T09:28:21.245Z,18.87
2018-05-18T09:30:55.283Z,16.27
2018-05-18T09:33:29.376Z,20.67
2018-05-18T09:36:03.448Z,17.83
2018-05-18T09:38:36.707Z,22.43
2018-05-18T09:41:09.987Z,22.07
2018-05-18T09:43:43.252Z,17.00
2018-05-18T09:46:16.548Z,23.97
2018-05-18T09:48:49.812Z,22.20
2018-05-18T09:51:23.102Z,19.10
2018-05-18T09:53:56.369Z,18.63
2018-05-18T09:56:29.648Z,16.80
2018-05-18T09:59:02.913Z,17.20
2018-05-18T10:01:36.195Z,17.17
2018-05-18T10:04:09.455Z,17.03
2018-05-18T10:06:42.733Z,15.47
2018-05-18T10:09:16.002Z,17.00
2018-05-18T10:11:50.062Z,18.77
2018-05-18T10:14:23.318Z,16.77
2018-05-18T10:16:57.369Z,17.87
2018-05-18T10:19:30.629Z,17.33
2018-05-18T10:22:03.923Z,17.77
2018-05-18T10:24:37.952Z,16.33
2018-05-18T10:27:11.232Z,20.63
2018-05-18T10:29:44.492Z,18.50
2018-05-18T10:32:17.767Z,15.70
2018-05-18T10:34:51.024Z,18.33
2018-05-18T10:37:24.308Z,16.17
2018-05-18T10:39:57.576Z,19.20
2018-05-18T10:42:30.844Z,17.67
2018-05-18T10:45:04.100Z,14.70
2018-05-18T10:47:37.411Z,18.00
2018-05-18T10:50:10.679Z,18.63
2018-05-18T10:52:43.961Z,14.87
2018-05-18T10:55:17.236Z,13.83
2018-05-18T10:57:50.528Z,17.07
2018-05-18T11:00:23.793Z,19.27
2018-05-18T11:02:57.087Z,17.27
2018-05-18T11:05:30.348Z,13.67
2018-05-18T11:08:03.632Z,13.63
2018-05-18T11:10:36.891Z,16.80
2018-05-18T11:13:10.178Z,18.27
2018-05-18T11:15:43.448Z,12.40
2018-05-18T11:18:16.737Z,12.93
2018-05-18T11:20:49.992Z,10.43
2018-05-18T11:23:24.038Z,8.37
2018-05-18T11:25:57.288Z,12.50
2018-05-18T11:28:30.573Z,10.93
2018-05-18T11:31:03.825Z,9.67
2018-05-18T11:33:37.118Z,16.83
2018-05-18T11:36:10.393Z,17.67
2018-05-18T11:38:43.669Z,17.23
2018-05-18T11:41:16.929Z,11.90
2018-05-18T11:43:50.200Z,13.90
2018-05-18T11:46:23.468Z,27.23
2018-05-18T11:48:56.753Z,16.10
2018-05-18T11:51:30.015Z,16.57
2018-05-18T11:54:03.284Z,15.17
2018-05-18T11:56:36.547Z,20.03
2018-05-18T11:59:09.825Z,16.20
2018-05-18T12:01:43.856Z,16.77
2018-05-18T12:04:17.144Z,22.87
2018-05-18T12:06:50.407Z,11.27
2018-05-18T12:09:23.700Z,16.77
2018-05-18T12:11:56.960Z,11.47
2018-05-18T12:14:30.251Z,13.23
2018-05-18T12:17:03.525Z,13.83
2018-05-18T12:19:36.793Z,13.13
2018-05-18T12:22:10.830Z,13.67
2018-05-18T12:24:44.117Z,13.97
2018-05-18T12:27:17.367Z,13.27
2018-05-18T12:29:50.657Z,10.83
2018-05-18T12:32:23.910Z,12.27
2018-05-18T12:34:57.191Z,13.53
2018-05-18T12:37:34.768Z,9.40
2018-05-18T12:40:08.821Z,11.20
2018-05-18T12:42:42.071Z,12.20
2018-05-18T12:45:15.359Z,9.83
2018-05-18T12:47:49.384Z,15.33
2018-05-18T12:50:22.659Z,11.93
2018-05-18T12:52:55.931Z,17.63
2018-05-18T12:55:29.208Z,10.03
2018-05-18T12:58:02.470Z,13.83
2018-05-18T13:00:35.746Z,16.20
2018-05-18T13:03:09.766Z,16.17
2018-05-18T13:05:43.801Z,13.10
2018-05-18T13:08:17.139Z,14.53
2018-05-18T13:10:51.103Z,11.83
2018-05-18T13:13:24.366Z,16.03
2018-05-18T13:15:57.701Z,15.13
2018-05-18T13:18:31.671Z,15.10
2018-05-18T13:21:04.951Z,14.63
2018-05-18T13:23:38.212Z,13.63
2018-05-18T13:26:12.258Z,9.17
2018-05-18T13:28:45.522Z,13.20
2018-05-18T13:31:18.802Z,13.23
2018-05-18T13:33:52.064Z,14.83
2018-05-18T13:36:25.355Z,13.10
2018-05-18T13:38:59.375Z,9.50
2018-05-18T13:41:32.870Z,15.43
2018-05-18T13:44:06.148Z,11.87
2018-05-18T13:46:40.185Z,12.33
2018-05-18T13:49:13.440Z,14.57
2018-05-18T13:51:46.835Z,12.20
2018-05-18T13:54:20.786Z,12.97
2018-05-18T13:56:54.092Z,16.53
2018-05-18T13:59:27.351Z,12.40
2018-05-18T14:02:01.588Z,11.30
2018-05-18T14:04:34.843Z,14.53
2018-05-18T14:07:08.132Z,12.10
2018-05-18T14:09:41.395Z,14.57
2018-05-18T14:12:14.694Z,13.37
2018-05-18T14:14:47.972Z,11.30
2018-05-18T14:17:21.277Z,13.97
2018-05-18T14:19:54.544Z,12.33
2018-05-18T14:22:27.846Z,10.60
2018-05-18T14:25:01.097Z,9.57
2018-05-18T14:27:34.526Z,10.97
2018-05-18T14:30:08.552Z,12.37
2018-05-18T14:32:41.852Z,11.87
2018-05-18T14:35:15.116Z,9.67
2018-05-18T14:37:49.171Z,9.93
2018-05-18T14:40:22.405Z,10.57
2018-05-18T14:42:56.451Z,11.67
2018-05-18T14:45:29.781Z,9.00
2018-05-18T14:48:02.980Z,11.63
2018-05-18T14:50:36.239Z,9.67
2018-05-18T14:53:09.511Z,11.30
2018-05-18T14:55:43.532Z,12.07
2018-05-18T14:58:16.817Z,12.07
2018-05-18T15:00:50.837Z,8.20
2018-05-18T15:03:24.107Z,13.30
2018-05-18T15:05:58.136Z,11.73
2018-05-18T15:08:31.405Z,14.73
2018-05-18T15:11:04.713Z,14.30
2018-05-18T15:13:37.971Z,12.20
2018-05-18T15:16:11.230Z,10.07
2018-05-18T15:18:44.502Z,11.57
2018-05-18T15:21:17.771Z,11.00
2018-05-18T15:23:51.811Z,13.13
2018-05-18T15:26:25.069Z,9.33
2018-05-18T15:28:58.348Z,9.07
2018-05-18T15:31:31.609Z,11.13
2018-05-18T15:34:04.887Z,10.30
2018-05-18T15:36:38.148Z,11.13
2018-05-18T15:39:11.436Z,11.07
2018-05-18T15:41:44.679Z,9.40
2018-05-18T15:44:17.965Z,10.03
2018-05-18T15:46:51.219Z,8.07
2018-05-18T15:49:24.570Z,12.17
2018-05-18T15:51:57.747Z,9.53
2018-05-18T15:54:31.249Z,12.10
2018-05-18T15:57:04.512Z,11.70
2018-05-18T15:59:37.803Z,10.57
2018-05-18T16:02:11.064Z,11.03
2018-05-18T16:04:44.376Z,9.20
2018-05-18T16:07:17.632Z,10.83
2018-05-18T16:09:51.013Z,10.07
2018-05-18T16:12:24.272Z,9.43
2018-05-18T16:14:57.568Z,13.20
2018-05-18T16:17:31.598Z,11.53
2018-05-18T16:20:05.895Z,10.30
2018-05-18T16:22:39.924Z,12.03
2018-05-18T16:25:13.219Z,9.77
2018-05-18T16:27:47.241Z,11.00
2018-05-18T16:30:20.532Z,12.20
2018-05-18T16:32:54.560Z,9.70
2018-05-18T16:35:27.831Z,8.80
2018-05-18T16:38:01.856Z,8.53
2018-05-18T16:40:35.235Z,9.20
2018-05-18T16:43:08.492Z,7.37
2018-05-18T16:45:41.777Z,14.77
2018-05-18T16:48:15.051Z,9.90
2018-05-18T16:50:48.358Z,10.17
2018-05-18T16:53:21.589Z,7.53
2018-05-18T16:55:54.865Z,8.47
2018-05-18T16:58:28.121Z,12.27
2018-05-18T17:01:01.787Z,10.83
2018-05-18T17:03:35.178Z,9.10
2018-05-18T17:06:08.719Z,10.07
2018-05-18T17:08:42.100Z,7.87
2018-05-18T17:11:15.754Z,11.57
2018-05-18T17:13:49.235Z,10.03
2018-05-18T17:16:22.635Z,5.67
2018-05-18T17:18:55.973Z,9.40
2018-05-18T17:21:30.237Z,5.70
2018-05-18T17:24:03.699Z,8.23
2018-05-18T17:26:37.911Z,7.03
2018-05-18T17:29:12.025Z,7.90
2018-05-18T17:31:45.533Z,8.97
2018-05-18T17:34:18.941Z,8.07
2018-05-18T17:36:52.200Z,8.83
2018-05-18T17:39:26.232Z,10.50
2018-05-18T17:41:59.515Z,9.70
2018-05-18T17:44:33.544Z,12.43
2018-05-18T17:47:06.820Z,9.37
2018-05-18T17:49:40.844Z,12.90
2018-05-18T17:52:14.899Z,10.60
2018-05-18T17:54:48.156Z,9.07
2018-05-18T17:57:21.430Z,9.47
2018-05-18T17:59:54.683Z,9.07
2018-05-18T18:02:27.953Z,8.73
2018-05-18T18:05:01.213Z,10.17
2018-05-18T18:07:35.261Z,6.80
2018-05-18T18:10:08.531Z,13.40
2018-05-18T18:12:42.582Z,11.40
2018-05-18T18:15:15.836Z,7.90
2018-05-18T18:17:49.102Z,11.03
2018-05-18T18:20:22.355Z,10.27
2018-05-18T18:22:55.643Z,6.37
2018-05-18T18:25:28.896Z,9.93
2018-05-18T18:28:02.183Z,7.80
2018-05-18T18:30:35.950Z,10.63
2018-05-18T18:33:10.678Z,7.33
2018-05-18T18:35:43.962Z,8.23
2018-05-18T18:38:17.235Z,6.30
2018-05-18T18:40:50.505Z,8.60
2018-05-18T18:43:23.786Z,13.67
2018-05-18T18:45:57.044Z,7.77
2018-05-18T18:48:30.323Z,10.93
2018-05-18T18:51:03.584Z,8.50
2018-05-18T18:53:37.625Z,11.83
2018-05-18T18:56:10.877Z,9.93
2018-05-18T18:58:44.210Z,14.50
2018-05-18T19:01:17.426Z,11.00
2018-05-18T19:03:50.696Z,9.97
2018-05-18T19:06:24.096Z,10.73
2018-05-18T19:08:57.367Z,11.27
2018-05-18T19:11:31.404Z,12.07
2018-05-18T19:14:04.688Z,11.77
2018-05-18T19:16:37.957Z,10.23
2018-05-18T19:19:11.237Z,12.10
2018-05-18T19:21:44.504Z,12.33
2018-05-18T19:24:17.868Z,11.43
2018-05-18T19:26:51.071Z,12.83
2018-05-18T19:29:24.332Z,14.77
2018-05-18T19:31:57.618Z,14.63
2018-05-18T19:34:30.872Z,13.07
2018-05-18T19:37:04.163Z,13.50
2018-05-18T19:39:37.422Z,15.43
2018-05-18T19:42:11.465Z,13.13
2018-05-18T19:44:44.729Z,12.67
2018-05-18T19:47:17.999Z,13.90
2018-05-18T19:49:51.271Z,15.20
2018-05-18T19:52:24.549Z,14.67
2018-05-18T19:54:57.805Z,12.03
2018-05-18T19:57:31.157Z,12.43
2018-05-18T20:00:04.364Z,12.33
2018-05-18T20:02:37.644Z,11.33
2018-05-18T20:05:10.913Z,12.87
2018-05-18T20:07:44.189Z,13.23
2018-05-18T20:10:17.449Z,11.63
2018-05-18T20:12:50.725Z,11.77
2018-05-18T20:15:23.986Z,13.93
2018-05-18T20:17:57.276Z,13.23
2018-05-18T20:20:30.533Z,15.83
2018-05-18T20:23:03.812Z,14.50
2018-05-18T20:25:37.080Z,19.17
2018-05-18T20:28:10.360Z,12.60
2018-05-18T20:30:43.621Z,13.87
2018-05-18T20:33:16.914Z,13.77
2018-05-18T20:35:50.942Z,13.87
2018-05-18T20:38:24.224Z,10.50
2018-05-18T20:40:57.496Z,14.07
2018-05-18T20:43:31.540Z,15.47
2018-05-18T20:46:04.795Z,12.47
2018-05-18T20:48:38.082Z,12.97
2018-05-18T20:51:11.337Z,12.97
2018-05-18T20:53:44.609Z,18.90
2018-05-18T20:56:17.867Z,14.87
2018-05-18T20:58:51.152Z,13.77
2018-05-18T21:01:24.414Z,14.30
2018-05-18T21:03:57.717Z,18.77
2018-05-18T21:06:30.972Z,13.63
2018-05-18T21:09:04.261Z,14.93
2018-05-18T21:11:38.276Z,13.63
2018-05-18T21:14:11.556Z,15.20
2018-05-18T21:16:44.817Z,16.87
2018-05-18T21:19:18.096Z,12.63
2018-05-18T21:21:51.349Z,14.77
2018-05-18T21:24:25.391Z,15.33
2018-05-18T21:26:58.651Z,12.37
2018-05-18T21:29:32.699Z,12.47
2018-05-18T21:32:05.956Z,14.17
2018-05-18T21:34:39.996Z,9.43
2018-05-18T21:37:13.260Z,18.10
2018-05-18T21:39:47.313Z,15.10
2018-05-18T21:42:20.580Z,15.50
2018-05-18T21:44:53.862Z,13.27
2018-05-18T21:47:27.883Z,11.57
2018-05-18T21:50:01.179Z,14.70
2018-05-18T21:52:34.428Z,15.83
2018-05-18T21:55:07.713Z,17.27
2018-05-18T21:57:40.963Z,18.40
2018-05-18T22:00:14.244Z,14.70
2018-05-18T22:02:48.292Z,11.83
2018-05-18T22:05:21.543Z,13.27
2018-05-18T22:07:55.592Z,15.60
2018-05-18T22:10:28.862Z,17.70
2018-05-18T22:13:02.146Z,13.30
2018-05-18T22:15:35.404Z,16.10
2018-05-18T22:18:08.675Z,12.80
2018-05-18T22:20:41.931Z,14.57
2018-05-18T22:23:15.980Z,14.07
2018-05-18T22:25:49.234Z,14.83
2018-05-18T22:28:23.285Z,11.83
